Información del aeropuerto LESO

Información de pista
Pista 04 Longitud 5755 ft Anchura 148 ft
Elevación 10 ft Umbral 0 ft Rumbo 39
Pista 22 Longitud 5755 ft Anchura 148 ft
Elevación 15 ft Umbral 0 ft Rumbo 219
Frecuencias del aeropuerto
Tipo TWR Nombre SAN SEBAST Frecuencia 119.85 MHZ
Radioayudas del aeropuerto
Tipo NDB-DME Nombre San Sebastian Frecuencia 328 KHZ
Tipo VOR-DME Nombre San Sebastian Frecuencia 117900 KHZ
Información meteorológica del aeropuerto y NOTAM
ADDS - METARS form results

(1529 UTC 16 January 2021)
Data provider http://aviationweather.gov/metar/data/
 
METAR text: LESO 161500Z 02004KT 330V060 CAVOK 12/05 Q1028
Conditions at: LESO (SAN SEBASTIAN/FU, ES) observed 1500 UTC 16 January 2021
Temperature: 12.0°C (54°F)
Dewpoint: 5.0°C (41°F) [RH = 62%]
Pressure (altimeter): 30.35 inches Hg (1028.0 mb)
Winds: from the NNE (20 degrees) at 5 MPH (4 knots; 2.1 m/s)
Visibility: 6 or more miles (10+ km)
Ceiling: ceiling and visibility are OK
Clouds: unknown
Weather: no significant weather observed at this time

METAR text: LESO 161430Z 02004KT 340V060 CAVOK 11/05 Q1028
Conditions at: LESO (SAN SEBASTIAN/FU, ES) observed 1430 UTC 16 January 2021
Temperature: 11.0°C (52°F)
Dewpoint: 5.0°C (41°F) [RH = 66%]
Pressure (altimeter): 30.35 inches Hg (1028.0 mb)
Winds: from the NNE (20 degrees) at 5 MPH (4 knots; 2.1 m/s)
Visibility: 6 or more miles (10+ km)
Ceiling: ceiling and visibility are OK
Clouds: unknown
Weather: no significant weather observed at this time

Forecast for: LESO (SAN SEBASTIAN/FU, ES)
Text: TAF LESO 161100Z 1612/1712 VRB05KT 9999 SCT020 TX14/1614Z TN07/1621Z
Forecast period: 1200 UTC 16 January 2021 to 1200 UTC 17 January 2021
Forecast type: FROM: standard forecast or significant change
Winds: variable direction winds at 6 MPH (5 knots; 2.6 m/s)
Visibility: 6 or more miles (10+ km)
Ceiling: at least 12,000 feet AGL
Clouds: scattered clouds at 2000 feet AGL
Weather: no significant weather forecast for this period
Text: TEMPO 1708/1712 25010KT RA BKN010
Forecast period: 0800 to 1200 UTC 17 January 2021
Forecast type: TEMPORARY: The following changes expected for less than half the time period
Winds: from the WSW (250 degrees) at 12 MPH (10 knots; 5.1 m/s)
Visibility: missing
Ceiling: 1000 feet AGL
Clouds: broken clouds at 1000 feet AGL
Weather: RA  (moderate rain)